createdAt,value
2022-10-05T00:00:58.895Z,5.00
2022-10-05T00:03:36.765Z,4.32
2022-10-05T00:06:03.397Z,4.70
2022-10-05T00:08:32.702Z,4.55
2022-10-05T00:10:59.571Z,4.10
2022-10-05T00:13:28.845Z,5.07
2022-10-05T00:16:12.139Z,4.88
2022-10-05T00:18:39.350Z,4.57
2022-10-05T00:21:24.104Z,5.00
2022-10-05T00:23:51.768Z,4.68
2022-10-05T00:26:22.798Z,4.50
2022-10-05T00:28:50.148Z,5.22
2022-10-05T00:31:24.999Z,4.45
2022-10-05T00:33:51.583Z,4.57
2022-10-05T00:36:18.902Z,5.10
2022-10-05T00:38:45.722Z,4.95
2022-10-05T00:41:20.902Z,5.10
2022-10-05T00:44:18.196Z,4.47
2022-10-05T00:47:04.359Z,5.65
2022-10-05T00:49:49.286Z,5.10
2022-10-05T00:52:28.300Z,4.82
2022-10-05T00:54:59.829Z,4.63
2022-10-05T00:57:31.480Z,4.78
2022-10-05T01:00:06.493Z,5.50
2022-10-05T01:02:54.554Z,4.82
2022-10-05T01:05:45.800Z,5.20
2022-10-05T01:08:27.380Z,4.93
2022-10-05T01:11:21.144Z,4.90
2022-10-05T01:13:59.525Z,4.07
2022-10-05T01:16:39.005Z,5.50
2022-10-05T01:19:16.410Z,4.95
2022-10-05T01:21:57.021Z,5.13
2022-10-05T01:25:02.243Z,5.28
2022-10-05T01:27:46.931Z,5.40
2022-10-05T01:30:17.086Z,5.43
2022-10-05T01:32:43.421Z,4.85
2022-10-05T01:35:34.561Z,5.20
2022-10-05T01:38:25.090Z,5.20
2022-10-05T01:41:19.560Z,5.10
2022-10-05T01:43:58.203Z,5.35
2022-10-05T01:47:00.315Z,5.63
2022-10-05T01:49:38.061Z,5.20
2022-10-05T01:52:13.559Z,5.53
2022-10-05T01:55:07.898Z,6.03
2022-10-05T01:57:52.336Z,5.88
2022-10-05T02:00:20.120Z,5.88
2022-10-05T02:02:57.227Z,5.82
2022-10-05T02:05:36.149Z,6.40
2022-10-05T02:08:13.680Z,5.80
2022-10-05T02:11:09.429Z,6.38
2022-10-05T02:13:47.381Z,5.50
2022-10-05T02:16:20.749Z,5.82
2022-10-05T02:18:53.827Z,6.10
2022-10-05T02:21:21.817Z,6.05
2022-10-05T02:23:53.464Z,6.30
2022-10-05T02:26:21.148Z,5.25
2022-10-05T02:28:57.849Z,5.90
2022-10-05T02:31:37.901Z,6.15
2022-10-05T02:34:30.682Z,5.90
2022-10-05T02:37:07.334Z,6.53
2022-10-05T02:39:51.056Z,6.07
2022-10-05T02:42:33.194Z,5.97
2022-10-05T02:45:27.341Z,6.65
2022-10-05T02:48:07.630Z,6.57
2022-10-05T02:50:48.890Z,5.63
2022-10-05T02:53:28.611Z,5.93
2022-10-05T02:56:13.725Z,6.50
2022-10-05T02:59:08.413Z,6.57
2022-10-05T03:01:47.912Z,5.72
2022-10-05T03:04:23.634Z,5.90
2022-10-05T03:07:11.896Z,5.78
2022-10-05T03:09:45.118Z,5.40
2022-10-05T03:12:25.684Z,5.75
2022-10-05T03:15:10.210Z,6.18
2022-10-05T03:17:51.245Z,6.10
2022-10-05T03:20:26.787Z,5.32
2022-10-05T03:22:58.282Z,5.82
2022-10-05T03:25:39.589Z,5.45
2022-10-05T03:30:55.009Z,5.82
2022-10-05T03:33:30.364Z,5.88
2022-10-05T03:36:32.905Z,5.57
2022-10-05T03:39:20.559Z,5.72
2022-10-05T03:42:04.016Z,5.43
2022-10-05T03:44:39.129Z,5.57
2022-10-05T03:47:15.065Z,5.65
2022-10-05T03:49:56.641Z,4.78
2022-10-05T03:52:39.300Z,5.57
2022-10-05T03:55:17.884Z,5.85
2022-10-05T03:57:46.671Z,6.20
2022-10-05T04:00:19.748Z,5.93
2022-10-05T04:03:04.904Z,5.22
2022-10-05T04:05:46.490Z,5.40
2022-10-05T04:08:29.437Z,5.22
2022-10-05T04:11:00.481Z,5.30
2022-10-05T04:13:57.893Z,5.80
2022-10-05T04:16:53.414Z,5.50
2022-10-05T04:19:34.446Z,5.50
2022-10-05T04:22:12.283Z,6.10
2022-10-05T04:24:58.388Z,5.65
2022-10-05T04:27:35.852Z,5.95
2022-10-05T04:30:12.370Z,6.43
2022-10-05T04:32:57.344Z,5.80
2022-10-05T04:35:50.048Z,5.65
2022-10-05T04:38:42.918Z,6.10
2022-10-05T04:41:18.583Z,5.55
2022-10-05T04:43:57.156Z,5.43
2022-10-05T04:46:42.587Z,5.38
2022-10-05T04:49:47.721Z,5.45
2022-10-05T04:52:16.973Z,4.57
2022-10-05T04:54:55.369Z,5.68
2022-10-05T04:57:35.374Z,5.07
2022-10-05T05:00:05.600Z,3.97
2022-10-05T05:02:51.615Z,5.32
2022-10-05T05:06:17.963Z,6.00
2022-10-05T05:09:27.695Z,5.72
2022-10-05T05:12:14.825Z,4.93
2022-10-05T05:14:50.257Z,5.10
2022-10-05T05:17:31.983Z,4.75
2022-10-05T05:20:22.753Z,5.78
2022-10-05T05:23:12.798Z,5.47
2022-10-05T05:25:52.430Z,5.00
2022-10-05T05:28:39.045Z,5.43
2022-10-05T05:31:16.911Z,5.80
2022-10-05T05:34:03.947Z,5.53
2022-10-05T05:36:47.783Z,5.45
2022-10-05T05:39:29.037Z,6.22
2022-10-05T05:42:17.562Z,5.68
2022-10-05T05:44:49.731Z,5.90
2022-10-05T05:47:20.703Z,5.80
2022-10-05T05:49:47.106Z,3.78
2022-10-05T05:52:24.326Z,2.92
2022-10-05T05:55:04.798Z,4.50
2022-10-05T05:57:39.124Z,5.40
2022-10-05T06:00:14.698Z,4.30
2022-10-05T06:02:57.686Z,5.25
2022-10-05T06:05:30.528Z,4.43
2022-10-05T06:08:01.231Z,2.65
2022-10-05T06:10:41.332Z,3.75
2022-10-05T06:13:17.965Z,4.53
2022-10-05T06:16:26.425Z,3.47
2022-10-05T06:18:59.140Z,4.00
2022-10-05T06:21:42.070Z,3.92
2022-10-05T06:24:22.136Z,4.05
2022-10-05T06:27:33.865Z,4.30
2022-10-05T06:30:06.800Z,4.07
2022-10-05T06:32:45.610Z,4.43
2022-10-05T06:35:33.326Z,3.40
2022-10-05T06:38:24.627Z,4.40
2022-10-05T06:41:15.575Z,4.05
2022-10-05T06:43:58.907Z,3.90
2022-10-05T06:46:25.167Z,2.38
2022-10-05T06:49:31.169Z,3.92
2022-10-05T06:52:06.567Z,3.92
2022-10-05T06:54:54.161Z,3.60
2022-10-05T06:57:32.686Z,3.45
2022-10-05T07:00:13.964Z,3.30
2022-10-05T07:05:41.429Z,3.40
2022-10-05T07:08:13.623Z,3.40
2022-10-05T07:11:04.437Z,3.70
2022-10-05T07:13:49.373Z,2.80
2022-10-05T07:16:36.767Z,3.35
2022-10-05T07:19:35.359Z,3.40
2022-10-05T07:22:29.327Z,3.30
2022-10-05T07:25:03.340Z,3.25
2022-10-05T07:27:35.036Z,3.22
2022-10-05T07:30:07.140Z,3.20
2022-10-05T07:33:00.083Z,3.38
2022-10-05T07:35:54.291Z,3.10
2022-10-05T07:38:32.501Z,2.97
2022-10-05T07:41:16.873Z,3.17
2022-10-05T07:44:02.420Z,2.58
2022-10-05T07:46:32.331Z,2.80
2022-10-05T07:49:18.093Z,3.20
2022-10-05T07:51:50.554Z,2.80
2022-10-05T07:54:38.054Z,3.10
2022-10-05T07:57:41.215Z,2.75
2022-10-05T08:00:20.725Z,3.15
2022-10-05T08:03:05.515Z,2.03
2022-10-05T08:05:35.445Z,3.15
2022-10-05T08:08:12.392Z,2.95
2022-10-05T08:10:55.101Z,2.63
2022-10-05T08:13:55.343Z,3.47
2022-10-05T08:16:26.744Z,2.55
2022-10-05T08:19:02.288Z,2.53
2022-10-05T08:21:36.903Z,2.80
2022-10-05T08:24:09.871Z,2.83
2022-10-05T08:26:51.750Z,3.35
2022-10-05T08:29:34.162Z,2.47
2022-10-05T08:32:11.740Z,2.20
2022-10-05T08:34:51.222Z,2.88
2022-10-05T08:37:24.610Z,2.25
2022-10-05T08:40:31.109Z,2.25
2022-10-05T08:43:36.421Z,2.58
2022-10-05T08:46:21.362Z,3.10
2022-10-05T08:48:53.907Z,2.40
2022-10-05T08:51:37.706Z,2.55
2022-10-05T08:54:28.111Z,2.83
2022-10-05T08:57:25.519Z,2.53
2022-10-05T09:00:13.778Z,2.92
2022-10-05T09:03:12.724Z,2.78
2022-10-05T09:05:48.152Z,2.72
2022-10-05T09:08:41.983Z,3.38
2022-10-05T09:11:26.164Z,2.90
2022-10-05T09:14:16.684Z,2.80
2022-10-05T09:16:52.899Z,2.50
2022-10-05T09:19:53.094Z,2.47
2022-10-05T09:22:38.235Z,3.00
2022-10-05T09:25:23.005Z,2.67
2022-10-05T09:27:57.594Z,2.63
2022-10-05T09:30:52.991Z,2.33
2022-10-05T09:33:32.637Z,2.85
2022-10-05T09:36:24.191Z,2.78
2022-10-05T09:39:35.736Z,2.55
2022-10-05T09:44:56.659Z,2.05
2022-10-05T09:47:53.810Z,2.35
2022-10-05T09:50:40.743Z,2.35
2022-10-05T09:53:40.399Z,1.83
2022-10-05T09:56:43.473Z,2.30
2022-10-05T09:59:35.880Z,2.50
2022-10-05T10:02:21.069Z,2.80
2022-10-05T10:05:20.054Z,2.28
2022-10-05T10:07:55.851Z,2.15
2022-10-05T10:10:52.726Z,2.08
2022-10-05T10:14:03.865Z,2.08
2022-10-05T10:16:46.050Z,2.10
2022-10-05T10:19:35.893Z,2.10
2022-10-05T10:22:49.999Z,2.03
2022-10-05T10:25:28.643Z,2.63
2022-10-05T10:28:13.823Z,2.30
2022-10-05T10:30:52.470Z,2.33
2022-10-05T10:33:54.692Z,1.52
2022-10-05T10:36:43.952Z,1.55
2022-10-05T10:39:50.379Z,1.85
2022-10-05T10:42:26.304Z,1.95
2022-10-05T10:45:08.115Z,1.48
2022-10-05T10:47:50.652Z,1.58
2022-10-05T10:50:33.093Z,1.75
2022-10-05T10:53:37.371Z,1.80
2022-10-05T10:56:22.616Z,1.60
2022-10-05T10:59:17.147Z,1.63
2022-10-05T11:01:49.728Z,1.70
2022-10-05T11:04:36.707Z,1.50
2022-10-05T11:07:33.921Z,1.50
2022-10-05T11:10:25.917Z,1.70
2022-10-05T11:13:09.023Z,1.60
2022-10-05T11:15:57.456Z,1.67
2022-10-05T11:18:45.276Z,1.60
2022-10-05T11:21:30.297Z,1.20
2022-10-05T11:24:38.712Z,2.00
2022-10-05T11:27:27.109Z,1.30
2022-10-05T11:29:59.090Z,1.50
2022-10-05T11:33:06.165Z,1.20
2022-10-05T11:36:03.614Z,1.73
2022-10-05T11:39:07.059Z,1.30
2022-10-05T11:42:07.683Z,1.30
2022-10-05T11:45:21.732Z,1.50
2022-10-05T11:48:07.282Z,2.35
2022-10-05T11:50:57.081Z,1.98
2022-10-05T11:53:37.479Z,1.20
2022-10-05T11:59:15.354Z,1.10
2022-10-05T12:02:08.053Z,1.10
2022-10-05T12:04:46.617Z,1.25
2022-10-05T12:07:33.529Z,1.30
2022-10-05T12:10:14.052Z,1.10
2022-10-05T12:13:05.561Z,1.25
2022-10-05T12:15:38.265Z,1.92
2022-10-05T12:18:08.850Z,1.60
2022-10-05T12:20:49.782Z,1.45
2022-10-05T12:23:33.444Z,1.25
2022-10-05T12:26:02.587Z,1.50
2022-10-05T12:28:36.153Z,1.30
2022-10-05T12:31:14.433Z,1.27
2022-10-05T12:33:54.152Z,1.60
2022-10-05T12:36:26.345Z,1.27
2022-10-05T12:39:05.621Z,0.90
2022-10-05T12:42:02.123Z,1.23
2022-10-05T12:44:49.047Z,1.35
2022-10-05T12:47:40.556Z,1.40
2022-10-05T12:50:14.112Z,1.15
2022-10-05T12:53:11.014Z,0.93
2022-10-05T12:55:56.696Z,1.80
2022-10-05T12:58:36.914Z,1.30
2022-10-05T13:01:19.574Z,0.90
2022-10-05T13:03:59.532Z,1.25
2022-10-05T13:06:53.153Z,1.13
2022-10-05T13:09:42.126Z,0.98
2022-10-05T13:12:36.095Z,0.98
2022-10-05T13:15:02.469Z,0.98
2022-10-05T13:17:39.180Z,0.77
2022-10-05T13:20:22.586Z,1.05
2022-10-05T13:23:14.080Z,1.20
2022-10-05T13:25:51.593Z,2.00
2022-10-05T13:28:25.812Z,1.05
2022-10-05T13:31:06.238Z,0.98
2022-10-05T13:33:50.795Z,0.98
2022-10-05T13:36:39.513Z,1.05
2022-10-05T13:39:22.512Z,1.00
2022-10-05T13:42:07.454Z,0.70
2022-10-05T13:44:50.605Z,0.70
2022-10-05T13:47:40.102Z,0.90
2022-10-05T13:50:17.402Z,0.70
2022-10-05T13:52:59.714Z,0.90
2022-10-05T13:55:52.154Z,0.95
2022-10-05T13:58:32.409Z,0.80
2022-10-05T14:01:02.453Z,1.00
2022-10-05T14:03:37.869Z,2.85
2022-10-05T14:06:30.571Z,0.70
2022-10-05T14:09:02.748Z,0.70
2022-10-05T14:11:34.842Z,1.00
2022-10-05T14:14:16.941Z,1.00
2022-10-05T14:17:00.392Z,0.98
2022-10-05T14:19:32.354Z,0.90
2022-10-05T14:22:02.055Z,0.80
2022-10-05T14:24:45.669Z,0.85
2022-10-05T14:27:55.216Z,0.77
2022-10-05T14:30:25.547Z,0.70
2022-10-05T14:33:05.517Z,1.00
2022-10-05T14:35:49.128Z,1.20
2022-10-05T14:38:22.966Z,0.80
2022-10-05T14:41:07.622Z,0.70
2022-10-05T14:43:34.748Z,1.65
2022-10-05T14:46:23.312Z,1.23
2022-10-05T14:49:11.980Z,1.00
2022-10-05T14:51:38.574Z,1.10
2022-10-05T14:54:25.323Z,0.80
2022-10-05T14:57:05.859Z,0.90
2022-10-05T14:59:54.775Z,0.70
2022-10-05T15:02:37.667Z,0.70
2022-10-05T15:05:18.919Z,0.80
2022-10-05T15:07:49.202Z,0.60
2022-10-05T15:10:30.563Z,0.80
2022-10-05T15:13:19.151Z,0.93
2022-10-05T15:15:56.092Z,0.90
2022-10-05T15:18:42.863Z,1.20
2022-10-05T15:21:16.609Z,0.60
2022-10-05T15:23:48.881Z,1.00
2022-10-05T15:26:27.348Z,0.77
2022-10-05T15:29:18.615Z,0.85
2022-10-05T15:31:54.708Z,1.23
2022-10-05T15:34:33.582Z,0.70
2022-10-05T15:37:11.738Z,0.70
2022-10-05T15:39:50.169Z,0.80
2022-10-05T15:42:20.238Z,1.00
2022-10-05T15:45:03.064Z,0.63
2022-10-05T15:47:45.614Z,0.88
2022-10-05T15:50:26.621Z,0.90
2022-10-05T15:55:49.971Z,1.27
2022-10-05T15:59:04.500Z,0.80
2022-10-05T16:01:30.838Z,1.40
2022-10-05T16:04:03.943Z,0.75
2022-10-05T16:06:58.025Z,0.90
2022-10-05T16:09:34.596Z,0.70
2022-10-05T16:12:18.953Z,0.60
2022-10-05T16:14:56.414Z,0.88
2022-10-05T16:17:35.122Z,0.73
2022-10-05T16:20:16.555Z,0.80
2022-10-05T16:22:59.282Z,1.00
2022-10-05T16:25:42.107Z,0.50
2022-10-05T16:28:18.994Z,0.90
2022-10-05T16:31:06.594Z,0.93
2022-10-05T16:33:54.268Z,0.80
2022-10-05T16:36:40.246Z,1.02
2022-10-05T16:39:20.366Z,0.65
2022-10-05T16:41:51.331Z,0.80
2022-10-05T16:44:30.050Z,0.80
2022-10-05T16:47:03.990Z,0.90
2022-10-05T16:49:46.863Z,0.65
2022-10-05T16:52:19.365Z,0.95
2022-10-05T16:54:51.509Z,0.70
2022-10-05T16:57:27.058Z,0.75
2022-10-05T17:00:15.554Z,0.70
2022-10-05T17:03:08.183Z,0.90
2022-10-05T17:05:44.153Z,1.00
2022-10-05T17:08:41.070Z,0.90
2022-10-05T17:11:29.070Z,0.70
2022-10-05T17:14:15.421Z,0.60
2022-10-05T17:17:00.694Z,0.90
2022-10-05T17:19:41.046Z,0.70
2022-10-05T17:22:22.602Z,0.87
2022-10-05T17:24:59.595Z,0.90
2022-10-05T17:27:52.114Z,1.00
2022-10-05T17:30:21.499Z,1.00
2022-10-05T17:33:04.555Z,0.60
2022-10-05T17:35:54.111Z,0.70
2022-10-05T17:38:35.804Z,0.60
2022-10-05T17:41:24.883Z,1.00
2022-10-05T17:44:06.724Z,0.65
2022-10-05T17:46:38.607Z,0.98
2022-10-05T17:49:43.654Z,0.70
2022-10-05T17:53:02.749Z,0.63
2022-10-05T17:55:31.825Z,0.90
2022-10-05T17:58:00.804Z,0.70
2022-10-05T18:00:40.569Z,0.80
2022-10-05T18:03:33.575Z,1.00
2022-10-05T18:06:26.205Z,0.88
2022-10-05T18:09:16.880Z,0.85
2022-10-05T18:11:44.981Z,0.70
2022-10-05T18:14:24.851Z,0.82
2022-10-05T18:17:27.855Z,1.00
2022-10-05T18:20:44.607Z,0.82
2022-10-05T18:23:10.941Z,0.90
2022-10-05T18:25:55.780Z,0.82
2022-10-05T18:28:35.982Z,1.00
2022-10-05T18:31:21.021Z,0.80
2022-10-05T18:33:59.498Z,1.10
2022-10-05T18:36:37.925Z,0.80
2022-10-05T18:39:04.598Z,0.70
2022-10-05T18:41:40.548Z,0.73
2022-10-05T18:44:30.266Z,0.90
2022-10-05T18:46:59.637Z,0.95
2022-10-05T18:49:39.614Z,0.88
2022-10-05T18:52:24.459Z,1.10
2022-10-05T18:54:59.821Z,1.10
2022-10-05T18:57:55.350Z,0.82
2022-10-05T19:00:23.476Z,0.95
2022-10-05T19:03:13.099Z,0.95
2022-10-05T19:05:51.284Z,1.10
2022-10-05T19:08:32.826Z,1.00
2022-10-05T19:11:54.826Z,1.00
2022-10-05T19:14:26.995Z,1.27
2022-10-05T19:17:13.018Z,0.98
2022-10-05T19:19:51.883Z,0.85
2022-10-05T19:22:18.272Z,1.15
2022-10-05T19:24:58.419Z,1.10
2022-10-05T19:27:32.481Z,1.00
2022-10-05T19:30:18.565Z,0.95
2022-10-05T19:32:52.730Z,0.60
2022-10-05T19:35:41.987Z,1.10
2022-10-05T19:38:32.546Z,1.52
2022-10-05T19:41:11.196Z,1.17
2022-10-05T19:43:53.382Z,1.10
2022-10-05T19:46:22.594Z,1.50
2022-10-05T19:48:52.784Z,0.90
2022-10-05T19:51:49.611Z,0.90
2022-10-05T19:54:29.732Z,1.08
2022-10-05T19:57:01.879Z,1.23
2022-10-05T19:59:31.395Z,1.05
2022-10-05T20:01:59.108Z,1.35
2022-10-05T20:04:31.535Z,1.02
2022-10-05T20:06:59.238Z,1.35
2022-10-05T20:09:25.606Z,1.13
2022-10-05T20:11:53.005Z,1.30
2022-10-05T20:14:32.893Z,1.40
2022-10-05T20:17:35.265Z,1.40
2022-10-05T20:20:24.423Z,1.35
2022-10-05T20:22:50.830Z,1.20
2022-10-05T20:25:17.182Z,1.10
2022-10-05T20:27:52.145Z,1.40
2022-10-05T20:30:24.555Z,1.27
2022-10-05T20:32:53.174Z,1.25
2022-10-05T20:35:23.502Z,1.70
2022-10-05T20:37:49.931Z,1.47
2022-10-05T20:40:18.647Z,1.30
2022-10-05T20:42:45.162Z,1.45
2022-10-05T20:45:12.791Z,1.85
2022-10-05T20:47:40.305Z,1.33
2022-10-05T20:50:09.054Z,1.50
2022-10-05T20:52:39.745Z,1.50
2022-10-05T20:55:08.736Z,1.52
2022-10-05T20:57:38.372Z,1.10
2022-10-05T21:00:05.688Z,1.52
2022-10-05T21:02:32.056Z,1.25
2022-10-05T21:04:58.447Z,0.80
2022-10-05T21:07:25.628Z,1.20
2022-10-05T21:09:52.039Z,1.35
2022-10-05T21:12:18.400Z,1.50
2022-10-05T21:14:45.296Z,0.95
2022-10-05T21:17:12.376Z,0.63
2022-10-05T21:19:39.282Z,0.10
2022-10-05T21:22:09.957Z,0.20
2022-10-05T21:24:40.706Z,0.10
2022-10-05T21:27:08.137Z,0.15
2022-10-05T21:29:35.646Z,0.17
2022-10-05T21:32:02.258Z,0.90
2022-10-05T21:34:28.763Z,0.15
2022-10-05T21:36:55.491Z,0.10
2022-10-05T21:39:21.863Z,0.10
2022-10-05T21:41:49.808Z,0.20
2022-10-05T21:44:16.593Z,0.20
2022-10-05T21:46:42.961Z,0.20
2022-10-05T21:49:09.704Z,0.25
2022-10-05T21:51:36.734Z,0.20
2022-10-05T21:54:11.516Z,0.30
2022-10-05T21:56:41.754Z,0.20
2022-10-05T21:59:12.908Z,0.32
2022-10-05T22:04:06.348Z,0.30
2022-10-05T22:06:33.734Z,0.40
2022-10-05T22:09:00.214Z,0.80
2022-10-05T22:11:27.859Z,0.70
2022-10-05T22:13:54.680Z,0.40
2022-10-05T22:16:23.825Z,0.30
2022-10-05T22:18:50.493Z,0.47
2022-10-05T22:21:17.176Z,0.30
2022-10-05T22:23:45.410Z,0.30
2022-10-05T22:26:15.815Z,0.40
2022-10-05T22:28:43.042Z,0.40
2022-10-05T22:31:10.617Z,0.40
2022-10-05T22:33:37.089Z,0.40
2022-10-05T22:36:04.634Z,0.57
2022-10-05T22:38:31.401Z,0.50
2022-10-05T22:40:57.935Z,0.47
2022-10-05T22:43:26.843Z,0.85
2022-10-05T22:45:54.208Z,0.40
2022-10-05T22:48:20.685Z,0.60
2022-10-05T22:50:47.053Z,0.50
2022-10-05T22:53:13.886Z,0.50
2022-10-05T22:55:40.494Z,0.50
2022-10-05T22:58:06.893Z,0.65
2022-10-05T23:00:56.575Z,0.50
2022-10-05T23:03:19.586Z,0.40
2022-10-05T23:05:45.939Z,0.45
2022-10-05T23:08:12.282Z,0.77
2022-10-05T23:10:38.643Z,0.60
2022-10-05T23:13:05.000Z,0.50
2022-10-05T23:15:31.366Z,1.00
2022-10-05T23:17:57.696Z,0.57
2022-10-05T23:20:24.676Z,0.70
2022-10-05T23:22:51.056Z,0.70
2022-10-05T23:25:17.790Z,0.80
2022-10-05T23:27:44.346Z,0.50
2022-10-05T23:30:12.230Z,0.75
2022-10-05T23:32:40.634Z,1.73
2022-10-05T23:35:08.614Z,0.70
2022-10-05T23:37:43.240Z,0.80
2022-10-05T23:40:12.600Z,0.60
2022-10-05T23:42:40.127Z,1.08
2022-10-05T23:45:08.421Z,0.60
2022-10-05T23:47:34.757Z,0.75
2022-10-05T23:50:01.155Z,1.00
2022-10-05T23:52:27.686Z,0.90
2022-10-05T23:54:54.035Z,0.80
2022-10-05T23:57:20.671Z,0.80
2022-10-05T23:59:50.056Z,1.00
